アディスアベバ の空港の天気 - METARとTAF

ボレ国際空港(アディスアベバ) ( HAAB / ADD ) - エチオピア アディスアベバ
飛行場実況気象(Metar)
観測時間10/22 07:00 EAT (10/22 04:00 UTC)
風向・風速北西 2m/s
視程10km以上
天気現象
少しの雲 雲底高度 910m
気温14℃
湿度67%
気圧1028hPa
METARHAAB 220400Z 32004KT 9999 FEW030 14/08 Q1028
過去の天気等 Google飛行場航空写真 Wunderground天気予報

過去48時間のMETAR

飛行場予報(TAF)
発表時間: 10/22 12:30 EAT (10/22 09:30 UTC)
予報対象時間: 22日15時 EAT ~ 23日21時 EAT
風向・風速北東 2m/s
視程10km以上
全天の4割程度の雲 雲底高度 790m
全天の4割程度の雲 雲底高度 2440m
22日17時 EAT ~ 22日21時 EAT に徐々に
風向・風速東 3m/s
視程9000m
天気現象弱いもや
全天の8割程度の雲 雲底高度 790m
TAF HAAB 220930Z 2212/2318 04004KT 9999 SCT026 SCT080
BECMG 2214/2218 09006KT 9000 -BR BKN026